Ana Sayfa
METAR-TAF:

METAR-TAF

Havaalanları :

Merzifon, Türkiye

Amasya Merzifon Havalimanı

Enlem: 40-51N, Boylam: 035-35E, yükseklik: 545 m

Güncel hava durumu gözlemi

Rapor saat 02:50 UTC de 32 dakika önce yapıldı.
Rüzgar kuzey/kuzeydoğudan 12 kt
Sıcaklık 2°C
Nem 80%
Basınç 1011 hPa
Görüş mesafesi 10 km veya daha fazla
1600 ft yükseklikte az bulutlu
3200 ft yükseklikte parçalı çok bulutlu

METAR: LTAP 260250Z 03012KT 9999 FEW016 BKN032 02/M01 Q1011 NOSIG RMK RWY23 03011KT

Saat: 06:22 (03:22 UTC)

Tahmin

Rapor saat 22:40 UTC de 4 saat ve 42 dakika önce yapıldı.
Ayın 26'si saat 00 UTC'den ayın 26'si saat 24 UTC'ye kadar geçerli Tahmin
Rüzgar kuzey/kuzeydoğudan 9 kt
Görüş mesafesi 10 km veya daha fazla
1500 ft yükseklikte az bulutlu
3500 ft yükseklikte parçalı çok bulutlu
Dönüşüyor
ayın 26'si saat 04 UTC'den ayın 26'si saat 07 UTC'ye kadar
4000 ft yükseklikte parçalı bulutlu

TAF: LTAP 252240Z 2600/2624 02009KT 9999 FEW015 BKN035 BECMG 2604/2607 SCT040

4.000'den fazla havaalanı için hava durumu gözlemleri ve tahminleri (METAR ve TAF raporları).

Kullanılabilir istasyonlar harita üzerinde sarı ve kırmızı noktalarla gösterilir.

İstasyonun adını görmek için fareyi noktanın üzerinde gezdirin.

Sonrasında hava gözlem ve tahminlerini görmek için tıklayın.

Haritayı değiştirmek için: yaklaştırmak için siyah artı işaretli yeşil düğmeye ve uzaklaştırmak için de eksi işaretli düğmeye hızla tıklayın; bitişik haritalar için yeşil okları kullanın.


METAR-TAF: